Time;durP1;ratioP1;P1;durP2;ratioP2;P2;SDS_P1;SDS_P2;PMS_P1;PMS_P2;Temp;Humidity;BMP_temperature;BMP_pressure;BME280_temperature;BME280_humidity;BME280_pressure;Samples;Min_cycle;Max_cycle;Signal;HPM_P1;HPM_P2
2023/11/26 00:01:56;;;;;;;9.05;3.38;;;;;;;;;;5063279;28;20033;-77
2023/11/26 00:04:23;;;;;;;8.63;3.70;;;;;;;;;;5067280;28;20035;-77
2023/11/26 00:06:50;;;;;;;9.40;3.17;;;;;;;;;;5064904;28;20127;-77
2023/11/26 00:09:15;;;;;;;9.70;3.80;;;;;;;;;;5068521;28;20669;-77
2023/11/26 00:11:41;;;;;;;10.18;3.90;;;;;;;;;;5066395;28;20052;-77
2023/11/26 00:14:07;;;;;;;9.50;3.75;;;;;;;;;;5066156;28;20039;-78
2023/11/26 00:16:37;;;;;;;9.60;3.45;;;;;;;;;;5061403;28;20474;-77
2023/11/26 00:19:03;;;;;;;8.05;3.60;;;;;;;;;;5062771;28;20028;-77
2023/11/26 00:21:28;;;;;;;9.38;3.70;;;;;;;;;;5066986;28;20060;-77
2023/11/26 00:23:54;;;;;;;11.18;3.75;;;;;;;;;;5060792;28;20517;-77
2023/11/26 00:26:19;;;;;;;9.52;3.45;;;;;;;;;;5071621;28;20395;-77
2023/11/26 00:28:45;;;;;;;8.27;3.53;;;;;;;;;;5076400;28;20068;-77
2023/11/26 00:31:10;;;;;;;7.07;3.40;;;;;;;;;;5075098;28;20060;-77
2023/11/26 00:33:36;;;;;;;9.55;3.72;;;;;;;;;;5067624;28;20059;-77
2023/11/26 00:36:01;;;;;;;6.60;3.35;;;;;;;;;;5050225;28;20199;-78
2023/11/26 00:38:26;;;;;;;9.90;3.63;;;;;;;;;;5062402;28;20443;-78
2023/11/26 00:40:52;;;;;;;9.60;3.95;;;;;;;;;;5050826;28;20424;-77
2023/11/26 00:43:17;;;;;;;6.60;2.95;;;;;;;;;;5035580;28;20075;-77
2023/11/26 00:45:43;;;;;;;7.43;2.83;;;;;;;;;;5063915;28;20037;-78
2023/11/26 00:48:08;;;;;;;8.48;3.35;;;;;;;;;;5051885;28;20089;-77
2023/11/26 00:50:34;;;;;;;8.13;3.30;;;;;;;;;;5060955;28;20028;-77
2023/11/26 00:52:59;;;;;;;9.63;3.60;;;;;;;;;;5035297;28;20481;-78
2023/11/26 00:55:26;;;;;;;8.38;3.20;;;;;;;;;;5051004;28;20033;-77
2023/11/26 00:57:53;;;;;;;7.05;3.15;;;;;;;;;;5067421;28;20029;-78
2023/11/26 01:00:18;;;;;;;7.57;3.00;;;;;;;;;;5068358;28;20060;-78
2023/11/26 01:02:44;;;;;;;9.40;3.10;;;;;;;;;;5049476;28;20089;-78
2023/11/26 01:05:10;;;;;;;7.40;3.05;;;;;;;;;;5061878;28;20033;-77
2023/11/26 01:07:37;;;;;;;7.93;3.08;;;;;;;;;;5062957;28;20044;-78
2023/11/26 01:10:03;;;;;;;6.53;3.17;;;;;;;;;;5068163;28;20034;-78
2023/11/26 01:12:29;;;;;;;10.40;3.53;;;;;;;;;;5066680;28;20119;-77
2023/11/26 01:14:55;;;;;;;9.25;3.58;;;;;;;;;;5063857;28;20090;-77
2023/11/26 01:17:21;;;;;;;10.75;3.90;;;;;;;;;;5062638;28;20127;-78
2023/11/26 01:19:47;;;;;;;9.60;4.05;;;;;;;;;;5066632;28;20394;-77
2023/11/26 01:22:13;;;;;;;9.13;3.70;;;;;;;;;;5067468;28;20059;-78
2023/11/26 01:24:38;;;;;;;9.63;3.80;;;;;;;;;;5049138;28;20072;-77
2023/11/26 01:27:06;;;;;;;9.52;3.65;;;;;;;;;;5069912;28;20029;-77
2023/11/26 01:29:31;;;;;;;9.75;3.65;;;;;;;;;;5060004;28;20028;-77
2023/11/26 01:31:56;;;;;;;7.85;3.38;;;;;;;;;;5050491;28;20037;-77
2023/11/26 01:34:22;;;;;;;9.65;3.65;;;;;;;;;;5053932;28;20060;-77
2023/11/26 01:36:47;;;;;;;12.30;4.00;;;;;;;;;;5050885;28;20060;-77
2023/11/26 01:39:14;;;;;;;6.40;3.40;;;;;;;;;;5067706;28;20119;-78
2023/11/26 01:41:42;;;;;;;9.57;4.68;;;;;;;;;;5072425;28;20485;-77
2023/11/26 01:44:08;;;;;;;10.48;3.67;;;;;;;;;;5067751;28;20025;-77
2023/11/26 01:46:33;;;;;;;8.30;3.15;;;;;;;;;;5064150;28;20025;-78
2023/11/26 01:48:59;;;;;;;7.60;3.40;;;;;;;;;;5069566;28;20066;-77
2023/11/26 01:51:27;;;;;;;7.80;3.33;;;;;;;;;;5062973;28;20021;-77
2023/11/26 01:53:54;;;;;;;6.82;2.88;;;;;;;;;;5068165;28;20108;-77
2023/11/26 01:56:21;;;;;;;7.95;3.55;;;;;;;;;;5060995;28;20036;-78
2023/11/26 01:58:47;;;;;;;8.20;3.08;;;;;;;;;;5065866;28;20511;-77
2023/11/26 02:01:15;;;;;;;8.05;3.45;;;;;;;;;;5066353;28;20032;-78
2023/11/26 02:03:42;;;;;;;8.27;3.20;;;;;;;;;;5063488;28;20051;-77
2023/11/26 02:06:10;;;;;;;7.95;3.28;;;;;;;;;;5078168;28;20039;-78
2023/11/26 02:08:36;;;;;;;6.93;3.13;;;;;;;;;;5068894;28;20177;-77
2023/11/26 02:11:02;;;;;;;6.97;3.00;;;;;;;;;;5071135;28;20039;-78
2023/11/26 02:13:29;;;;;;;5.78;2.75;;;;;;;;;;5063714;28;20529;-77
2023/11/26 02:15:56;;;;;;;11.10;3.65;;;;;;;;;;5061058;28;20486;-78
2023/11/26 02:18:21;;;;;;;6.63;2.92;;;;;;;;;;5062197;28;20036;-77
2023/11/26 02:20:47;;;;;;;7.57;3.03;;;;;;;;;;5065320;28;20513;-77
2023/11/26 02:23:13;;;;;;;9.05;3.13;;;;;;;;;;5063713;28;20030;-77
2023/11/26 02:25:39;;;;;;;8.85;2.60;;;;;;;;;;5064030;28;20111;-77
2023/11/26 02:28:08;;;;;;;10.15;3.22;;;;;;;;;;5066035;28;20031;-77
2023/11/26 02:30:34;;;;;;;8.35;2.97;;;;;;;;;;5050764;28;20119;-77
2023/11/26 02:33:00;;;;;;;5.97;2.50;;;;;;;;;;5058733;28;20045;-78
2023/11/26 02:35:26;;;;;;;8.05;2.90;;;;;;;;;;5062310;28;20025;-77
2023/11/26 02:37:52;;;;;;;8.57;2.90;;;;;;;;;;5063197;28;20030;-77
2023/11/26 02:40:19;;;;;;;7.15;2.60;;;;;;;;;;5049193;28;20151;-78
2023/11/26 02:42:45;;;;;;;7.25;2.55;;;;;;;;;;5062059;28;20501;-77
2023/11/26 02:45:11;;;;;;;8.45;2.80;;;;;;;;;;5064633;28;20059;-78
2023/11/26 02:47:36;;;;;;;7.13;2.80;;;;;;;;;;5060944;28;20033;-77
2023/11/26 02:50:04;;;;;;;9.15;3.20;;;;;;;;;;5043439;28;20475;-77
2023/11/26 02:52:30;;;;;;;4.40;2.13;;;;;;;;;;5066878;28;20037;-77
2023/11/26 02:54:55;;;;;;;7.65;2.80;;;;;;;;;;5060018;28;20025;-77
2023/11/26 02:57:20;;;;;;;6.88;2.72;;;;;;;;;;5066042;28;20047;-78
2023/11/26 02:59:46;;;;;;;7.85;2.58;;;;;;;;;;5060834;28;20054;-77
2023/11/26 03:02:14;;;;;;;6.85;2.50;;;;;;;;;;5064448;28;20036;-77
2023/11/26 03:04:44;;;;;;;7.05;2.90;;;;;;;;;;5065135;28;20036;-77
2023/11/26 03:07:10;;;;;;;6.72;2.78;;;;;;;;;;5051060;28;20567;-77
2023/11/26 03:14:45;;;;;;;7.50;2.90;;;;;;;;;;5061524;28;20094;-78
2023/11/26 03:17:13;;;;;;;7.30;2.85;;;;;;;;;;5064758;28;20028;-87
2023/11/26 03:19:39;;;;;;;7.65;2.65;;;;;;;;;;5068938;28;20124;-87
2023/11/26 03:22:09;;;;;;;8.13;2.75;;;;;;;;;;5084919;28;20111;-87
2023/11/26 03:24:35;;;;;;;8.43;2.67;;;;;;;;;;5064179;28;20390;-87
2023/11/26 03:27:03;;;;;;;7.07;2.70;;;;;;;;;;5038660;28;20085;-77
2023/11/26 03:29:29;;;;;;;9.52;2.63;;;;;;;;;;5063186;28;20069;-78
2023/11/26 03:31:55;;;;;;;5.80;2.47;;;;;;;;;;5053860;28;20128;-77
2023/11/26 03:34:23;;;;;;;6.47;2.67;;;;;;;;;;5080137;28;20025;-77
2023/11/26 03:36:48;;;;;;;7.82;2.53;;;;;;;;;;5063694;28;20032;-77
2023/11/26 03:39:14;;;;;;;6.68;2.88;;;;;;;;;;5068650;28;20033;-77
2023/11/26 03:41:39;;;;;;;9.30;2.50;;;;;;;;;;5067796;28;20433;-77
2023/11/26 03:44:05;;;;;;;5.55;2.55;;;;;;;;;;5035457;28;20033;-77
2023/11/26 03:46:32;;;;;;;6.20;2.40;;;;;;;;;;5049940;28;20029;-78
2023/11/26 03:48:59;;;;;;;7.75;2.45;;;;;;;;;;5080255;28;20047;-77
2023/11/26 03:51:25;;;;;;;10.30;2.40;;;;;;;;;;5049220;28;20029;-77
2023/11/26 03:53:50;;;;;;;6.97;2.35;;;;;;;;;;5083002;28;20052;-78
2023/11/26 03:56:16;;;;;;;6.50;2.55;;;;;;;;;;5046285;28;20075;-77
2023/11/26 03:58:41;;;;;;;7.47;2.25;;;;;;;;;;5049549;28;20486;-77
2023/11/26 04:01:08;;;;;;;7.45;2.30;;;;;;;;;;5061901;28;20082;-78
2023/11/26 04:03:33;;;;;;;6.95;2.47;;;;;;;;;;5061297;28;20051;-77
2023/11/26 04:05:59;;;;;;;6.28;2.10;;;;;;;;;;5068782;28;20557;-77
2023/11/26 04:08:24;;;;;;;7.25;2.35;;;;;;;;;;5063839;28;20025;-77
2023/11/26 04:10:50;;;;;;;5.93;1.88;;;;;;;;;;5048747;28;20091;-77
2023/11/26 04:13:17;;;;;;;7.22;2.60;;;;;;;;;;5051668;28;20127;-77
2023/11/26 04:15:46;;;;;;;6.88;2.25;;;;;;;;;;5060809;28;20104;-77
2023/11/26 04:18:12;;;;;;;7.40;2.25;;;;;;;;;;5063749;28;20047;-77
2023/11/26 04:20:38;;;;;;;7.28;2.40;;;;;;;;;;5078359;28;20082;-78
2023/11/26 04:23:03;;;;;;;6.13;1.85;;;;;;;;;;5079718;28;20032;-77
2023/11/26 04:25:28;;;;;;;5.43;1.95;;;;;;;;;;5061765;28;20402;-78
2023/11/26 04:27:55;;;;;;;4.93;2.00;;;;;;;;;;5099371;28;20490;-77
2023/11/26 04:30:21;;;;;;;6.72;2.13;;;;;;;;;;5069420;28;20048;-77
2023/11/26 04:32:47;;;;;;;6.20;2.13;;;;;;;;;;5061790;28;20040;-78
2023/11/26 04:35:12;;;;;;;8.55;2.08;;;;;;;;;;5039210;28;20024;-77
2023/11/26 04:37:38;;;;;;;4.20;1.80;;;;;;;;;;5051469;28;20037;-77
2023/11/26 04:40:05;;;;;;;7.18;2.00;;;;;;;;;;5061928;28;20103;-77
2023/11/26 04:42:34;;;;;;;7.00;2.13;;;;;;;;;;5066160;28;20182;-77
2023/11/26 04:44:59;;;;;;;5.63;1.70;;;;;;;;;;5083483;28;20041;-77
2023/11/26 04:47:25;;;;;;;5.63;1.75;;;;;;;;;;5062711;28;20458;-79
2023/11/26 04:49:50;;;;;;;3.67;1.70;;;;;;;;;;5064222;28;20494;-77
2023/11/26 04:52:15;;;;;;;6.75;1.70;;;;;;;;;;5065332;28;20024;-77
2023/11/26 04:54:41;;;;;;;7.65;1.75;;;;;;;;;;5061453;28;20032;-78
2023/11/26 04:57:06;;;;;;;5.20;1.60;;;;;;;;;;5052195;28;20487;-77
2023/11/26 04:59:32;;;;;;;5.40;1.60;;;;;;;;;;5066366;28;20478;-78
2023/11/26 05:01:58;;;;;;;4.55;1.50;;;;;;;;;;5053202;28;20040;-77
2023/11/26 05:04:24;;;;;;;3.90;1.30;;;;;;;;;;5063484;28;20119;-78
2023/11/26 05:06:50;;;;;;;5.22;1.67;;;;;;;;;;5053178;28;20150;-77
2023/11/26 05:09:16;;;;;;;5.13;1.50;;;;;;;;;;5065913;28;20024;-77
2023/11/26 05:11:45;;;;;;;4.65;1.30;;;;;;;;;;5050123;28;20032;-78
2023/11/26 05:14:11;;;;;;;5.47;1.50;;;;;;;;;;5063647;28;20124;-77
2023/11/26 05:16:37;;;;;;;4.57;1.40;;;;;;;;;;5064564;28;20124;-78
2023/11/26 05:19:03;;;;;;;5.80;1.60;;;;;;;;;;5061997;28;20482;-77
2023/11/26 05:21:29;;;;;;;3.67;1.40;;;;;;;;;;5067157;28;20039;-77
2023/11/26 05:23:54;;;;;;;4.75;1.50;;;;;;;;;;5035579;28;20556;-77
2023/11/26 05:26:20;;;;;;;4.15;1.40;;;;;;;;;;5062924;28;20029;-77
2023/11/26 05:28:46;;;;;;;4.80;1.50;;;;;;;;;;5065863;28;20032;-77
2023/11/26 05:31:11;;;;;;;4.60;1.23;;;;;;;;;;5033400;28;20116;-78
2023/11/26 05:33:38;;;;;;;3.67;1.20;;;;;;;;;;5065366;28;20028;-78
2023/11/26 05:36:05;;;;;;;4.35;1.45;;;;;;;;;;5066875;28;20028;-78
2023/11/26 05:38:31;;;;;;;3.63;1.25;;;;;;;;;;5054757;28;20035;-77
2023/11/26 05:40:57;;;;;;;5.25;1.52;;;;;;;;;;5066116;28;20424;-77
2023/11/26 05:43:22;;;;;;;3.28;1.00;;;;;;;;;;5068183;28;20037;-77
2023/11/26 05:45:48;;;;;;;3.25;1.10;;;;;;;;;;5047473;28;20036;-78
2023/11/26 05:48:13;;;;;;;4.38;1.10;;;;;;;;;;5062507;28;20029;-77
2023/11/26 05:50:39;;;;;;;3.15;1.00;;;;;;;;;;5060330;28;20041;-78
2023/11/26 05:53:04;;;;;;;3.20;1.00;;;;;;;;;;5036858;28;20033;-78
2023/11/26 05:55:30;;;;;;;1.88;0.82;;;;;;;;;;5065297;28;20062;-77
2023/11/26 05:57:56;;;;;;;3.28;1.27;;;;;;;;;;5069249;28;20028;-78
2023/11/26 06:00:21;;;;;;;2.83;1.00;;;;;;;;;;5061050;28;20469;-77
2023/11/26 06:02:50;;;;;;;4.20;1.30;;;;;;;;;;5061609;28;20039;-78
2023/11/26 06:05:16;;;;;;;3.08;1.00;;;;;;;;;;5048060;28;20037;-77
2023/11/26 06:07:41;;;;;;;3.28;1.00;;;;;;;;;;5068526;28;20043;-77
2023/11/26 06:10:07;;;;;;;3.70;1.20;;;;;;;;;;5064860;28;20123;-78
2023/11/26 06:12:32;;;;;;;4.60;1.08;;;;;;;;;;5061820;28;20483;-77
2023/11/26 06:14:58;;;;;;;3.72;1.20;;;;;;;;;;5063966;28;20048;-77
2023/11/26 06:17:23;;;;;;;4.30;1.00;;;;;;;;;;5065700;28;20029;-77
2023/11/26 06:19:49;;;;;;;4.53;1.10;;;;;;;;;;5064881;28;20036;-77
2023/11/26 06:22:14;;;;;;;5.55;1.40;;;;;;;;;;5047273;28;20041;-77
2023/11/26 06:24:40;;;;;;;5.53;1.20;;;;;;;;;;5059015;28;20041;-77
2023/11/26 06:27:05;;;;;;;5.80;1.40;;;;;;;;;;5047433;28;20033;-77
2023/11/26 06:29:31;;;;;;;3.53;1.17;;;;;;;;;;5063650;28;20082;-77
2023/11/26 06:31:56;;;;;;;7.07;1.52;;;;;;;;;;5081769;28;20025;-77
2023/11/26 06:34:26;;;;;;;1.98;1.10;;;;;;;;;;5050007;28;20371;-77
2023/11/26 06:36:53;;;;;;;8.25;1.45;;;;;;;;;;5075546;28;20024;-77
2023/11/26 06:39:19;;;;;;;7.78;1.60;;;;;;;;;;5060456;28;20031;-77
2023/11/26 06:41:44;;;;;;;5.32;1.50;;;;;;;;;;5052114;28;20028;-78
2023/11/26 06:44:12;;;;;;;3.83;1.30;;;;;;;;;;5059173;28;20107;-77
2023/11/26 06:46:38;;;;;;;4.15;1.50;;;;;;;;;;5064880;28;20111;-87
2023/11/26 06:49:03;;;;;;;5.20;1.55;;;;;;;;;;5055480;28;20074;-87
2023/11/26 06:51:29;;;;;;;6.50;1.70;;;;;;;;;;5068128;28;20518;-89
2023/11/26 06:53:54;;;;;;;8.18;2.10;;;;;;;;;;5052095;28;20033;-89
2023/11/26 06:56:22;;;;;;;4.55;1.48;;;;;;;;;;5083325;28;20041;-87
2023/11/26 06:58:48;;;;;;;5.65;1.63;;;;;;;;;;5033037;28;20143;-77
2023/11/26 07:01:14;;;;;;;8.07;2.13;;;;;;;;;;5063701;28;20037;-77
2023/11/26 07:03:40;;;;;;;6.78;1.70;;;;;;;;;;5065464;28;20413;-77
2023/11/26 07:06:07;;;;;;;5.85;1.42;;;;;;;;;;5063521;28;20032;-77
2023/11/26 07:08:33;;;;;;;4.80;1.50;;;;;;;;;;5065443;28;20036;-77
2023/11/26 07:10:59;;;;;;;3.95;1.40;;;;;;;;;;5068542;28;20390;-77
2023/11/26 07:13:28;;;;;;;3.55;1.27;;;;;;;;;;5067655;28;20027;-77
2023/11/26 07:15:54;;;;;;;4.63;1.30;;;;;;;;;;5059073;28;20033;-77
2023/11/26 07:18:19;;;;;;;4.40;1.38;;;;;;;;;;5063196;28;20036;-77
2023/11/26 07:20:46;;;;;;;3.55;1.40;;;;;;;;;;5078843;28;20511;-77
2023/11/26 07:23:11;;;;;;;4.30;1.40;;;;;;;;;;5065900;28;20066;-77
2023/11/26 07:25:39;;;;;;;7.38;1.50;;;;;;;;;;5062290;28;20064;-77
2023/11/26 07:28:08;;;;;;;4.00;1.33;;;;;;;;;;5064549;28;20024;-77
2023/11/26 07:30:35;;;;;;;5.40;1.90;;;;;;;;;;5062259;28;20028;-77
2023/11/26 07:33:00;;;;;;;4.50;1.60;;;;;;;;;;5034456;28;20032;-77
2023/11/26 07:35:26;;;;;;;7.32;1.92;;;;;;;;;;5060389;28;20029;-77
2023/11/26 07:37:51;;;;;;;4.90;1.67;;;;;;;;;;5077858;28;20044;-77
2023/11/26 07:40:17;;;;;;;5.95;2.03;;;;;;;;;;5063382;28;20055;-77
2023/11/26 07:42:42;;;;;;;6.68;1.90;;;;;;;;;;5057998;28;20426;-77
2023/11/26 07:45:08;;;;;;;6.93;2.05;;;;;;;;;;5057517;28;20474;-77
2023/11/26 07:47:34;;;;;;;6.72;2.30;;;;;;;;;;5049025;28;20032;-76
2023/11/26 07:50:00;;;;;;;4.80;1.90;;;;;;;;;;5045852;28;20087;-77
2023/11/26 07:52:26;;;;;;;6.82;2.20;;;;;;;;;;5064685;28;20028;-77
2023/11/26 07:54:52;;;;;;;6.50;2.00;;;;;;;;;;5064822;28;20112;-77
2023/11/26 07:57:18;;;;;;;6.93;2.15;;;;;;;;;;5066610;28;20089;-76
2023/11/26 07:59:43;;;;;;;6.40;2.45;;;;;;;;;;5059915;28;20478;-77
2023/11/26 08:02:10;;;;;;;11.45;2.42;;;;;;;;;;5062730;28;20407;-77
2023/11/26 08:04:37;;;;;;;5.85;2.00;;;;;;;;;;5064110;28;20136;-77
2023/11/26 08:07:03;;;;;;;6.85;2.17;;;;;;;;;;5064990;28;20100;-77
2023/11/26 08:09:31;;;;;;;13.02;2.22;;;;;;;;;;5065527;28;20115;-77
2023/11/26 08:11:59;;;;;;;5.82;2.10;;;;;;;;;;5047492;28;20032;-76
2023/11/26 08:14:25;;;;;;;4.70;1.95;;;;;;;;;;5067145;28;20028;-77
2023/11/26 08:16:51;;;;;;;6.43;1.90;;;;;;;;;;5060858;28;20048;-76
2023/11/26 08:19:18;;;;;;;7.70;2.20;;;;;;;;;;5044358;28;20028;-77
2023/11/26 08:21:45;;;;;;;4.57;1.85;;;;;;;;;;5051820;28;20093;-77
2023/11/26 08:24:15;;;;;;;4.57;1.83;;;;;;;;;;5034250;28;20036;-77
2023/11/26 08:26:41;;;;;;;6.00;2.00;;;;;;;;;;5048667;28;20044;-76
2023/11/26 08:29:09;;;;;;;7.28;1.83;;;;;;;;;;5060383;28;20040;-76
2023/11/26 08:31:37;;;;;;;6.10;1.90;;;;;;;;;;5080261;28;20482;-76
2023/11/26 08:34:05;;;;;;;7.57;2.00;;;;;;;;;;5049497;28;20032;-76
2023/11/26 08:36:33;;;;;;;10.55;2.35;;;;;;;;;;5077210;28;20056;-77
2023/11/26 08:38:59;;;;;;;7.68;2.25;;;;;;;;;;5056642;28;20044;-77
2023/11/26 08:41:25;;;;;;;9.23;2.00;;;;;;;;;;5065519;28;20020;-77
2023/11/26 08:43:50;;;;;;;7.03;2.00;;;;;;;;;;5059001;28;20064;-77
2023/11/26 08:46:18;;;;;;;4.55;1.80;;;;;;;;;;5064177;28;20036;-76
2023/11/26 08:48:45;;;;;;;5.18;2.45;;;;;;;;;;5079329;28;20029;-76
2023/11/26 08:51:11;;;;;;;5.43;1.88;;;;;;;;;;5059566;28;20046;-77
2023/11/26 08:53:37;;;;;;;5.28;1.95;;;;;;;;;;5056103;28;20546;-76
2023/11/26 08:56:03;;;;;;;8.32;2.20;;;;;;;;;;5067083;28;20033;-76
2023/11/26 08:58:29;;;;;;;7.53;2.28;;;;;;;;;;5041949;28;20027;-77
2023/11/26 09:00:57;;;;;;;9.63;2.50;;;;;;;;;;5049977;28;20036;-76
2023/11/26 09:03:22;;;;;;;8.18;2.17;;;;;;;;;;5063735;28;20090;-77
2023/11/26 09:05:49;;;;;;;8.27;2.78;;;;;;;;;;5049091;28;20474;-77
2023/11/26 09:08:16;;;;;;;6.38;2.10;;;;;;;;;;5064864;28;20028;-89
2023/11/26 09:10:41;;;;;;;6.28;1.90;;;;;;;;;;5055213;28;20089;-90
2023/11/26 09:13:07;;;;;;;7.05;2.38;;;;;;;;;;5062973;28;20033;-89
2023/11/26 09:15:36;;;;;;;9.80;2.30;;;;;;;;;;5052331;28;20028;-89
2023/11/26 09:18:04;;;;;;;8.75;2.20;;;;;;;;;;5058233;28;20382;-90
2023/11/26 09:20:29;;;;;;;7.68;2.20;;;;;;;;;;5073552;28;20056;-90
2023/11/26 09:22:55;;;;;;;6.70;1.98;;;;;;;;;;5071370;28;20464;-90
2023/11/26 09:25:20;;;;;;;6.97;2.00;;;;;;;;;;5043388;28;20032;-89
2023/11/26 09:27:45;;;;;;;12.27;2.30;;;;;;;;;;5056354;28;20198;-90
2023/11/26 09:30:12;;;;;;;9.52;2.45;;;;;;;;;;5066735;28;20033;-89
2023/11/26 09:32:38;;;;;;;7.68;2.28;;;;;;;;;;5072476;28;20114;-87
2023/11/26 09:35:04;;;;;;;6.45;2.55;;;;;;;;;;5068219;28;20546;-88
2023/11/26 09:37:30;;;;;;;8.57;2.30;;;;;;;;;;5073507;28;20028;-88
2023/11/26 09:39:56;;;;;;;11.95;2.40;;;;;;;;;;5057081;28;20032;-88
2023/11/26 09:42:23;;;;;;;9.00;2.95;;;;;;;;;;5083691;28;20032;-90
2023/11/26 09:44:49;;;;;;;8.40;2.50;;;;;;;;;;5069599;28;20035;-89
2023/11/26 09:47:15;;;;;;;7.47;2.67;;;;;;;;;;5068416;28;20031;-89
2023/11/26 09:49:42;;;;;;;12.65;2.90;;;;;;;;;;5052962;28;20029;-89
2023/11/26 09:52:08;;;;;;;5.40;2.47;;;;;;;;;;5084485;28;20033;-90
2023/11/26 09:54:34;;;;;;;9.00;2.90;;;;;;;;;;5056652;28;20024;-89
2023/11/26 09:57:01;;;;;;;6.72;2.53;;;;;;;;;;5082798;28;20033;-86
2023/11/26 09:59:31;;;;;;;8.15;2.22;;;;;;;;;;5054848;28;20477;-89
2023/11/26 10:02:00;;;;;;;6.55;3.30;;;;;;;;;;5067016;28;20028;-88
2023/11/26 10:04:26;;;;;;;7.07;3.50;;;;;;;;;;5073877;28;20032;-90
2023/11/26 10:06:54;;;;;;;9.15;3.30;;;;;;;;;;5070000;28;20559;-89
2023/11/26 10:09:21;;;;;;;8.95;3.72;;;;;;;;;;5054026;28;20036;-86
2023/11/26 10:11:47;;;;;;;7.70;3.42;;;;;;;;;;5072554;28;20034;-85
2023/11/26 10:14:21;;;;;;;8.82;3.40;;;;;;;;;;5070820;28;20031;-88
2023/11/26 10:16:48;;;;;;;9.07;2.38;;;;;;;;;;5052581;28;20025;-77
2023/11/26 10:19:28;;;;;;;9.82;4.57;;;;;;;;;;5065176;28;20048;-77
2023/11/26 10:21:56;;;;;;;9.57;4.18;;;;;;;;;;5063682;28;20021;-76
2023/11/26 10:24:23;;;;;;;8.50;3.22;;;;;;;;;;5051946;28;20086;-77
2023/11/26 10:26:52;;;;;;;8.15;3.22;;;;;;;;;;5063700;28;20067;-77
2023/11/26 10:29:20;;;;;;;11.40;3.03;;;;;;;;;;5079072;28;20070;-77
2023/11/26 10:31:57;;;;;;;10.63;2.70;;;;;;;;;;5057994;28;20592;-77
2023/11/26 10:34:22;;;;;;;7.60;2.63;;;;;;;;;;5075056;28;20029;-76
2023/11/26 10:36:48;;;;;;;12.20;3.47;;;;;;;;;;5063874;28;20536;-77
2023/11/26 10:39:14;;;;;;;8.00;2.60;;;;;;;;;;5048908;28;20513;-77
2023/11/26 10:41:41;;;;;;;9.05;2.67;;;;;;;;;;5045090;28;20036;-77
2023/11/26 10:44:07;;;;;;;6.30;2.60;;;;;;;;;;5056289;28;20059;-77
2023/11/26 10:46:35;;;;;;;9.55;2.42;;;;;;;;;;5057938;28;20028;-76
2023/11/26 10:49:25;;;;;;;8.68;2.60;;;;;;;;;;5049048;28;20028;-77
2023/11/26 10:52:02;;;;;;;7.45;2.90;;;;;;;;;;5052764;28;20551;-77
2023/11/26 10:54:38;;;;;;;11.02;2.78;;;;;;;;;;5050816;28;20021;-77
2023/11/26 10:57:11;;;;;;;7.47;2.92;;;;;;;;;;5057494;28;20074;-77
2023/11/26 10:59:43;;;;;;;8.45;3.30;;;;;;;;;;5052843;28;20029;-77
2023/11/26 11:02:13;;;;;;;8.70;3.42;;;;;;;;;;5057303;28;20035;-77
2023/11/26 11:04:41;;;;;;;6.50;2.92;;;;;;;;;;5055457;28;20287;-77
2023/11/26 11:07:07;;;;;;;12.35;3.67;;;;;;;;;;5054375;28;20032;-77
2023/11/26 11:09:47;;;;;;;7.85;3.53;;;;;;;;;;5058333;28;20040;-77
2023/11/26 11:12:15;;;;;;;10.38;3.83;;;;;;;;;;5055873;28;20032;-77
2023/11/26 11:14:41;;;;;;;9.18;3.60;;;;;;;;;;5065799;28;20039;-77
2023/11/26 11:17:07;;;;;;;10.85;3.17;;;;;;;;;;5055017;28;20037;-77
2023/11/26 11:19:50;;;;;;;9.10;3.15;;;;;;;;;;5050724;28;20040;-77
2023/11/26 11:22:16;;;;;;;6.35;3.28;;;;;;;;;;5069158;28;20357;-77
2023/11/26 11:24:43;;;;;;;9.50;3.03;;;;;;;;;;5059381;28;20537;-77
2023/11/26 11:27:08;;;;;;;6.75;2.83;;;;;;;;;;5028927;28;20044;-90
2023/11/26 11:29:34;;;;;;;7.93;2.70;;;;;;;;;;5049500;28;20425;-90
2023/11/26 11:32:02;;;;;;;7.05;2.65;;;;;;;;;;5047340;28;20497;-90
2023/11/26 11:34:29;;;;;;;8.90;3.28;;;;;;;;;;5064839;28;20032;-89
2023/11/26 11:36:56;;;;;;;8.30;2.85;;;;;;;;;;5059081;28;20028;-76
2023/11/26 11:39:27;;;;;;;4.90;2.28;;;;;;;;;;5046761;28;20040;-77
2023/11/26 11:42:02;;;;;;;8.73;2.70;;;;;;;;;;5055527;28;20551;-76
2023/11/26 11:44:34;;;;;;;8.00;2.30;;;;;;;;;;5051421;28;20037;-76
2023/11/26 11:47:10;;;;;;;9.60;2.70;;;;;;;;;;5056218;28;20024;-77
2023/11/26 11:49:45;;;;;;;7.93;2.42;;;;;;;;;;5084183;28;20040;-77
2023/11/26 11:52:14;;;;;;;6.45;2.65;;;;;;;;;;5075681;28;20029;-76
2023/11/26 11:54:52;;;;;;;6.45;2.30;;;;;;;;;;5060938;28;20426;-77
2023/11/26 11:57:23;;;;;;;5.43;2.05;;;;;;;;;;5057755;28;20056;-76
2023/11/26 11:59:51;;;;;;;6.88;2.20;;;;;;;;;;5089954;28;20028;-77
2023/11/26 12:02:18;;;;;;;6.38;2.42;;;;;;;;;;5050881;28;20139;-77
2023/11/26 12:04:46;;;;;;;5.97;1.90;;;;;;;;;;5060825;28;20111;-76
2023/11/26 12:07:12;;;;;;;8.00;2.33;;;;;;;;;;5047582;28;20025;-77
2023/11/26 12:09:39;;;;;;;4.97;2.13;;;;;;;;;;5062310;28;20032;-77
2023/11/26 12:12:06;;;;;;;4.30;2.38;;;;;;;;;;5050439;28;20081;-76
2023/11/26 12:14:32;;;;;;;7.40;2.60;;;;;;;;;;5043347;28;20490;-77
2023/11/26 12:17:06;;;;;;;7.15;2.30;;;;;;;;;;5052477;28;20033;-77
2023/11/26 12:19:40;;;;;;;8.98;2.35;;;;;;;;;;5055732;28;20036;-77
2023/11/26 12:22:06;;;;;;;9.38;2.67;;;;;;;;;;5072969;28;20039;-77
2023/11/26 12:24:32;;;;;;;7.07;2.10;;;;;;;;;;5051341;28;20025;-77
2023/11/26 12:26:58;;;;;;;5.03;1.63;;;;;;;;;;5054586;28;20166;-77
2023/11/26 12:29:25;;;;;;;7.30;2.00;;;;;;;;;;5051300;28;20029;-77
2023/11/26 12:32:05;;;;;;;5.15;1.70;;;;;;;;;;5056378;28;20028;-77
2023/11/26 12:34:38;;;;;;;4.30;1.70;;;;;;;;;;5052263;28;20603;-77
2023/11/26 12:37:09;;;;;;;3.80;1.30;;;;;;;;;;5051394;28;20039;-90
2023/11/26 12:39:38;;;;;;;3.88;1.25;;;;;;;;;;5062952;28;20077;-88
2023/11/26 12:42:04;;;;;;;3.28;1.17;;;;;;;;;;5065281;28;20047;-88
2023/11/26 12:44:33;;;;;;;4.70;1.10;;;;;;;;;;5048595;28;20045;-87
2023/11/26 12:47:09;;;;;;;2.33;1.13;;;;;;;;;;5066726;28;20555;-89
2023/11/26 12:49:36;;;;;;;2.22;0.95;;;;;;;;;;5064118;28;20028;-89
2023/11/26 12:52:02;;;;;;;4.25;1.10;;;;;;;;;;5061136;28;20036;-89
2023/11/26 12:54:29;;;;;;;2.67;1.00;;;;;;;;;;5083139;28;20571;-89
2023/11/26 12:56:55;;;;;;;4.82;1.50;;;;;;;;;;5061772;28;20064;-88
2023/11/26 12:59:21;;;;;;;3.05;1.33;;;;;;;;;;5065209;28;20025;-90
2023/11/26 13:01:47;;;;;;;4.18;1.55;;;;;;;;;;5081230;28;20041;-89
2023/11/26 13:04:13;;;;;;;4.45;1.65;;;;;;;;;;5050607;28;20051;-88
2023/11/26 13:06:56;;;;;;;3.33;1.70;;;;;;;;;;5064359;28;20036;-91
2023/11/26 13:09:22;;;;;;;7.57;1.92;;;;;;;;;;5082529;28;20036;-90
2023/11/26 13:11:47;;;;;;;7.60;2.10;;;;;;;;;;5053459;28;20036;-89
2023/11/26 13:14:20;;;;;;;9.90;2.35;;;;;;;;;;5070752;28;20028;-89
2023/11/26 13:16:46;;;;;;;5.80;2.30;;;;;;;;;;5064662;28;20025;-90
2023/11/26 13:19:12;;;;;;;5.85;2.20;;;;;;;;;;5050803;28;20043;-91
2023/11/26 13:21:49;;;;;;;5.55;1.98;;;;;;;;;;5070032;28;20028;-89
2023/11/26 13:24:16;;;;;;;6.82;2.28;;;;;;;;;;5068071;28;20025;-88
2023/11/26 13:26:41;;;;;;;5.82;2.50;;;;;;;;;;5061587;28;20036;-89
2023/11/26 13:29:07;;;;;;;8.13;2.40;;;;;;;;;;5050471;28;20028;-89
2023/11/26 13:31:33;;;;;;;6.88;2.75;;;;;;;;;;5044796;28;20033;-88
2023/11/26 13:33:59;;;;;;;7.47;2.72;;;;;;;;;;5046600;28;20092;-89
2023/11/26 13:36:24;;;;;;;10.25;3.60;;;;;;;;;;5060793;28;20040;-92
2023/11/26 13:38:50;;;;;;;4.97;2.50;;;;;;;;;;5045397;28;20044;-91
2023/11/26 13:41:15;;;;;;;7.55;2.85;;;;;;;;;;5065659;28;20028;-92
2023/11/26 13:43:41;;;;;;;6.43;3.28;;;;;;;;;;5029940;28;20379;-92
2023/11/26 13:46:07;;;;;;;7.47;3.80;;;;;;;;;;5046672;28;20036;-89
2023/11/26 13:48:34;;;;;;;7.03;3.50;;;;;;;;;;5064802;28;20032;-89
2023/11/26 13:51:01;;;;;;;6.80;3.50;;;;;;;;;;5061776;28;20037;-90
2023/11/26 13:53:27;;;;;;;8.93;3.95;;;;;;;;;;5078906;28;20561;-87
2023/11/26 13:55:54;;;;;;;7.40;3.92;;;;;;;;;;5059236;28;20036;-86
2023/11/26 13:58:19;;;;;;;7.30;3.60;;;;;;;;;;5053816;28;20483;-86
2023/11/26 14:00:46;;;;;;;6.32;3.60;;;;;;;;;;5065814;28;20035;-86
2023/11/26 14:03:12;;;;;;;8.07;3.60;;;;;;;;;;5063296;28;20039;-86
2023/11/26 14:05:38;;;;;;;10.82;3.58;;;;;;;;;;5059134;28;20032;-87
2023/11/26 14:08:06;;;;;;;6.55;3.35;;;;;;;;;;5061546;28;20028;-86
2023/11/26 14:10:31;;;;;;;6.65;3.65;;;;;;;;;;5066956;28;20058;-88
2023/11/26 14:13:01;;;;;;;6.75;3.30;;;;;;;;;;5044351;28;20121;-87
2023/11/26 14:15:27;;;;;;;7.90;3.20;;;;;;;;;;5033856;28;20020;-86
2023/11/26 14:17:53;;;;;;;5.30;3.03;;;;;;;;;;5064026;28;20478;-87
2023/11/26 14:20:20;;;;;;;6.85;3.28;;;;;;;;;;5064709;28;20028;-86
2023/11/26 14:22:47;;;;;;;7.55;3.38;;;;;;;;;;5046705;28;20063;-88
2023/11/26 14:25:15;;;;;;;7.53;3.13;;;;;;;;;;5060589;28;20036;-87
2023/11/26 14:27:46;;;;;;;7.63;3.72;;;;;;;;;;5045854;28;20039;-87
2023/11/26 14:30:15;;;;;;;10.25;3.47;;;;;;;;;;5060990;28;20075;-86
2023/11/26 14:32:46;;;;;;;8.77;3.45;;;;;;;;;;5078636;28;20105;-88
2023/11/26 14:35:12;;;;;;;6.75;3.00;;;;;;;;;;5060470;28;20451;-87
2023/11/26 14:37:38;;;;;;;9.73;2.70;;;;;;;;;;5061131;28;20028;-87
2023/11/26 14:40:10;;;;;;;7.63;2.83;;;;;;;;;;5054201;28;20126;-87
2023/11/26 14:42:37;;;;;;;5.03;2.40;;;;;;;;;;5058338;28;20068;-88
2023/11/26 14:45:05;;;;;;;5.53;2.30;;;;;;;;;;5062918;28;20488;-87
2023/11/26 14:47:31;;;;;;;8.38;2.30;;;;;;;;;;5043542;28;20272;-87